ZMT weather

Masset Airport
Masset, British Columbia, Canada

Public forecast

Using degrees Celsius for public forecast. Weather courtesy of forecast.io.

METAR (pilot weather report)

Retrieved 2019/07/18 18:10 UTC (21 minutes ago):

CZMT 181810Z 18005KT 15SM -SHRA FEW004 SCT008 BKN200 16/12 A2989 RMK CF1CU3CI1 SLP124 DENSITY ALT 200FT

TAF (pilot weather forecast)

Retrieved 2019/07/18 19:00 UTC (0 seconds ago):

TAF CZMT 181838Z 1819/1824 18006KT P6SM FEW008 SCT012 TEMPO 1819/1824 5SM -SHRA BR SCT008 BKN012 BECMG 1819/1821 22008KT RMK NXT FCST WILL BE ISSUED AT 191415Z